Time;durP1;ratioP1;P1;durP2;ratioP2;P2;SDS_P1;SDS_P2;PMS_P1;PMS_P2;Temp;Humidity;BMP_temperature;BMP_pressure;BME280_temperature;BME280_humidity;BME280_pressure;Samples;Min_cycle;Max_cycle;Signal;HPM_P1;HPM_P2
2022/08/26 00:00:40;;;;;;;11.77;9.03;;;;;;;19.39;100.00;100693.84;5085089;28;20309;-74
2022/08/26 00:03:07;;;;;;;14.20;9.03;;;;;;;19.43;100.00;100687.41;5090781;28;20553;-75
2022/08/26 00:05:35;;;;;;;17.37;9.10;;;;;;;19.46;100.00;100696.00;5088499;28;20285;-75
2022/08/26 00:08:01;;;;;;;15.80;9.67;;;;;;;19.46;100.00;100696.00;5085785;28;20226;-74
2022/08/26 00:10:28;;;;;;;14.50;10.33;;;;;;;19.45;100.00;100689.03;5091331;28;20225;-75
2022/08/26 00:12:54;;;;;;;15.10;9.70;;;;;;;19.47;100.00;100684.50;5085664;28;20204;-75
2022/08/26 00:15:22;;;;;;;14.87;8.97;;;;;;;19.51;100.00;100689.56;5083113;28;20225;-75
2022/08/26 00:17:49;;;;;;;13.23;9.23;;;;;;;19.49;100.00;100684.41;5078368;28;20553;-74
2022/08/26 00:20:20;;;;;;;18.73;9.73;;;;;;;19.49;100.00;100674.66;5085972;28;20601;-74
2022/08/26 00:22:48;;;;;;;16.30;9.43;;;;;;;19.48;100.00;100677.41;5086917;28;20239;-75
2022/08/26 00:25:15;;;;;;;17.90;10.50;;;;;;;19.48;100.00;100678.25;5083476;28;20612;-74
2022/08/26 00:27:42;;;;;;;14.53;9.40;;;;;;;19.46;100.00;100674.84;5086797;28;20221;-75
2022/08/26 00:30:12;;;;;;;14.73;9.50;;;;;;;19.45;100.00;100670.53;5081736;28;20725;-74
2022/08/26 00:32:39;;;;;;;13.87;9.50;;;;;;;19.43;100.00;100671.56;5082065;28;20688;-75
2022/08/26 00:35:07;;;;;;;13.63;9.93;;;;;;;19.41;100.00;100661.06;5087200;28;20568;-75
2022/08/26 00:37:34;;;;;;;16.07;10.03;;;;;;;19.38;100.00;100671.81;5088156;28;20233;-75
2022/08/26 00:40:02;;;;;;;14.83;10.23;;;;;;;19.35;100.00;100663.25;5084963;28;20205;-74
2022/08/26 00:42:28;;;;;;;14.53;9.27;;;;;;;19.34;100.00;100662.41;5083326;28;20244;-74
2022/08/26 00:44:55;;;;;;;13.33;9.43;;;;;;;19.30;100.00;100659.09;5089405;28;20197;-74
2022/08/26 00:47:27;;;;;;;17.70;9.10;;;;;;;19.26;100.00;100665.53;5084794;28;20234;-74
2022/08/26 00:49:55;;;;;;;11.83;9.53;;;;;;;19.21;100.00;100664.97;5084391;28;20216;-74
2022/08/26 00:52:23;;;;;;;12.77;8.97;;;;;;;19.17;100.00;100665.22;5085166;28;20198;-74
2022/08/26 00:54:55;;;;;;;16.13;9.53;;;;;;;19.11;100.00;100659.38;5077913;28;20186;-74
2022/08/26 00:57:24;;;;;;;14.33;9.40;;;;;;;19.09;100.00;100657.78;5085910;28;20226;-75
2022/08/26 00:59:55;;;;;;;12.30;9.10;;;;;;;19.04;100.00;100650.13;5079464;28;20716;-75
2022/08/26 01:02:22;;;;;;;15.47;9.10;;;;;;;19.04;100.00;100652.78;5083473;28;20623;-75
2022/08/26 01:04:51;;;;;;;11.93;8.70;;;;;;;19.01;100.00;100657.41;5085190;28;20646;-75
2022/08/26 01:07:18;;;;;;;19.20;9.83;;;;;;;18.97;100.00;100648.81;5082458;28;20253;-75
2022/08/26 01:09:45;;;;;;;21.67;9.63;;;;;;;18.99;100.00;100652.22;5080886;28;20205;-75
2022/08/26 01:12:12;;;;;;;13.67;9.80;;;;;;;18.96;100.00;100655.06;5083432;28;20601;-75
2022/08/26 01:14:40;;;;;;;12.60;9.17;;;;;;;18.93;100.00;100652.59;5086603;28;20198;-75
2022/08/26 01:17:07;;;;;;;17.83;9.77;;;;;;;18.89;100.00;100651.94;5079488;28;20235;-75
2022/08/26 01:19:44;;;;;;;15.87;9.53;;;;;;;18.84;100.00;100661.94;5081017;28;20228;-75
2022/08/26 01:22:16;;;;;;;14.07;9.47;;;;;;;18.80;100.00;100660.34;5084717;28;20201;-75
2022/08/26 01:24:44;;;;;;;14.77;9.50;;;;;;;18.77;100.00;100664.97;5082257;28;20572;-75
2022/08/26 01:27:13;;;;;;;13.50;9.37;;;;;;;18.74;100.00;100656.28;5086600;28;20271;-75
2022/08/26 01:29:43;;;;;;;13.43;9.80;;;;;;;18.71;100.00;100658.28;5083951;28;20550;-75
2022/08/26 01:32:14;;;;;;;13.03;9.83;;;;;;;18.69;100.00;100661.00;5081415;28;20231;-75
2022/08/26 01:34:40;;;;;;;14.80;8.70;;;;;;;18.66;100.00;100655.06;5086096;28;20984;-75
2022/08/26 01:37:11;;;;;;;19.53;10.40;;;;;;;18.63;100.00;100658.75;5085179;28;20588;-75
2022/08/26 01:39:38;;;;;;;15.23;9.43;;;;;;;18.60;100.00;100653.63;5087870;28;20697;-75
2022/08/26 01:42:11;;;;;;;12.17;9.40;;;;;;;18.59;100.00;100648.44;5087497;28;20557;-75
2022/08/26 01:44:43;;;;;;;16.40;11.07;;;;;;;18.62;100.00;100651.75;5089308;28;20194;-74
2022/08/26 01:47:12;;;;;;;14.87;10.97;;;;;;;18.70;100.00;100649.50;5084137;28;20673;-75
2022/08/26 01:49:41;;;;;;;16.90;12.37;;;;;;;18.71;100.00;100648.59;5092385;28;20194;-75
2022/08/26 01:52:09;;;;;;;19.40;11.60;;;;;;;18.74;100.00;100652.81;5083639;28;20254;-75
2022/08/26 01:54:36;;;;;;;18.70;12.03;;;;;;;18.72;100.00;100652.91;5090476;28;20270;-74
2022/08/26 01:57:03;;;;;;;17.30;12.00;;;;;;;18.69;100.00;100650.44;5085034;28;20228;-74
2022/08/26 01:59:31;;;;;;;20.63;11.87;;;;;;;18.66;100.00;100650.66;5081731;28;20213;-74
2022/08/26 02:01:58;;;;;;;19.30;12.07;;;;;;;18.69;100.00;100652.25;5080484;28;20210;-74
2022/08/26 02:04:29;;;;;;;18.93;12.73;;;;;;;18.65;100.00;100656.00;5083009;28;20654;-74
2022/08/26 02:06:56;;;;;;;16.67;11.50;;;;;;;18.61;100.00;100654.47;5080630;28;20201;-74
2022/08/26 02:09:24;;;;;;;14.60;11.07;;;;;;;18.58;100.00;100654.69;5085033;28;20255;-74
2022/08/26 02:11:51;;;;;;;22.37;11.07;;;;;;;18.54;100.00;100652.22;5082196;28;20225;-75
2022/08/26 02:14:21;;;;;;;17.23;10.80;;;;;;;18.50;100.00;100650.72;5082073;28;20202;-74
2022/08/26 02:16:51;;;;;;;16.33;10.87;;;;;;;18.47;100.00;100645.59;5080176;28;20228;-74
2022/08/26 02:19:21;;;;;;;12.53;10.53;;;;;;;18.44;100.00;100640.50;5084160;28;20203;-75
2022/08/26 02:21:48;;;;;;;15.07;9.53;;;;;;;18.44;100.00;100645.78;5085724;28;20240;-74
2022/08/26 02:24:18;;;;;;;16.53;10.33;;;;;;;18.39;100.00;100645.19;5081448;28;20209;-75
2022/08/26 02:26:46;;;;;;;17.90;10.33;;;;;;;18.37;100.00;100641.78;5088770;28;20196;-74
2022/08/26 02:29:19;;;;;;;18.57;11.57;;;;;;;18.37;100.00;100647.06;5086528;28;20214;-74
2022/08/26 02:31:47;;;;;;;15.63;10.70;;;;;;;18.32;100.00;100638.56;5084499;28;20612;-74
2022/08/26 02:34:19;;;;;;;14.77;10.30;;;;;;;18.29;100.00;100639.63;5062731;28;20214;-75
2022/08/26 02:36:45;;;;;;;20.37;10.63;;;;;;;18.26;100.00;100639.78;5085913;28;20217;-74
2022/08/26 02:39:12;;;;;;;14.13;10.67;;;;;;;18.22;100.00;100634.75;5069371;28;20202;-75
2022/08/26 02:41:38;;;;;;;13.93;10.10;;;;;;;18.18;100.00;100634.09;5084436;28;20758;-74
2022/08/26 02:44:05;;;;;;;14.77;10.30;;;;;;;18.17;100.00;100632.41;5089328;28;20233;-75
2022/08/26 02:46:32;;;;;;;13.10;9.87;;;;;;;18.15;100.00;100627.22;5089276;28;20190;-75
2022/08/26 02:49:00;;;;;;;13.23;9.63;;;;;;;18.12;100.00;100632.66;5086195;28;20212;-75
2022/08/26 02:51:27;;;;;;;12.77;9.77;;;;;;;18.11;100.00;100632.75;5085138;28;20214;-74
2022/08/26 02:53:54;;;;;;;15.80;9.43;;;;;;;18.10;100.00;100633.66;5083071;28;20205;-74
2022/08/26 02:56:20;;;;;;;14.43;10.37;;;;;;;18.10;100.00;100628.41;5085376;28;20218;-75
2022/08/26 02:58:47;;;;;;;18.33;10.83;;;;;;;18.08;100.00;100623.22;5088706;28;20197;-74
2022/08/26 03:01:24;;;;;;;18.87;10.67;;;;;;;18.05;100.00;100623.41;5084688;28;20217;-75
2022/08/26 03:03:51;;;;;;;14.47;10.90;;;;;;;18.05;100.00;100630.47;5084458;28;20270;-74
2022/08/26 03:06:17;;;;;;;14.90;10.43;;;;;;;18.04;100.00;100626.97;5086754;28;20202;-75
2022/08/26 03:08:46;;;;;;;14.80;11.00;;;;;;;18.03;100.00;100624.41;5090162;28;20198;-74
2022/08/26 03:11:13;;;;;;;17.93;11.97;;;;;;;18.00;100.00;100629.88;5068341;22;20227;-70
2022/08/26 03:13:41;;;;;;;16.10;10.80;;;;;;;18.00;100.00;100627.25;5046012;28;20473;-71
2022/08/26 03:16:08;;;;;;;22.10;11.27;;;;;;;17.98;100.00;100628.19;5040868;28;20691;-71
2022/08/26 03:18:35;;;;;;;17.90;11.60;;;;;;;17.95;100.00;100622.22;5029865;28;20228;-71
2022/08/26 03:21:05;;;;;;;14.03;10.40;;;;;;;17.96;100.00;100624.78;5018093;28;20263;-70
2022/08/26 03:23:33;;;;;;;14.30;10.10;;;;;;;17.94;100.00;100615.25;5025562;28;20218;-71
2022/08/26 03:26:01;;;;;;;13.83;10.17;;;;;;;17.94;100.00;100615.25;5024238;28;20207;-71
2022/08/26 03:28:27;;;;;;;14.43;10.10;;;;;;;17.92;100.00;100615.34;5032369;28;20664;-70
2022/08/26 03:30:53;;;;;;;14.00;9.93;;;;;;;17.93;100.00;100622.31;5032593;28;20203;-71
2022/08/26 03:33:20;;;;;;;17.83;10.83;;;;;;;17.93;100.00;100629.38;5026676;28;20201;-71
2022/08/26 03:35:47;;;;;;;13.73;10.07;;;;;;;17.92;100.00;100614.47;5026755;28;20200;-70
2022/08/26 03:38:14;;;;;;;15.50;10.43;;;;;;;17.94;100.00;100617.88;5027771;28;20219;-70
2022/08/26 03:40:42;;;;;;;12.67;9.97;;;;;;;17.93;100.00;100617.03;5023931;28;20185;-71
2022/08/26 03:43:11;;;;;;;15.30;10.47;;;;;;;17.91;100.00;100615.44;5022090;28;20731;-71
2022/08/26 03:45:38;;;;;;;13.70;10.40;;;;;;;17.91;100.00;100624.19;5009970;28;20203;-70
2022/08/26 03:48:05;;;;;;;12.07;9.23;;;;;;;17.91;100.00;100623.34;5025486;28;20230;-71
2022/08/26 03:50:32;;;;;;;18.77;10.87;;;;;;;17.92;100.00;100625.03;5022105;28;20219;-70
2022/08/26 03:52:58;;;;;;;14.93;11.30;;;;;;;17.93;100.00;100622.31;5020205;28;20200;-70
2022/08/26 03:55:30;;;;;;;13.73;10.17;;;;;;;17.96;100.00;100634.50;5031097;28;20608;-70
2022/08/26 03:57:58;;;;;;;15.93;10.70;;;;;;;17.98;100.00;100624.69;5026853;28;20208;-71
2022/08/26 04:00:26;;;;;;;14.33;10.07;;;;;;;17.99;100.00;100623.75;5026915;28;21388;-71
2022/08/26 04:02:52;;;;;;;16.03;11.90;;;;;;;18.01;100.00;100636.84;5036332;28;20197;-70
2022/08/26 04:05:20;;;;;;;16.70;11.23;;;;;;;18.01;100.00;100624.53;5033935;28;20191;-70
2022/08/26 04:07:47;;;;;;;15.83;10.53;;;;;;;18.02;100.00;100622.72;5025086;28;20209;-71
2022/08/26 04:10:16;;;;;;;17.00;11.63;;;;;;;18.03;100.00;100627.94;5025247;28;20567;-70
2022/08/26 04:12:44;;;;;;;17.33;10.50;;;;;;;18.05;100.00;100630.47;5009386;28;20259;-70
2022/08/26 04:15:13;;;;;;;15.07;9.27;;;;;;;18.06;100.00;100616.31;5028250;28;20620;-71
2022/08/26 04:17:41;;;;;;;13.97;10.60;;;;;;;18.08;100.00;100632.91;5028377;28;20208;-71
2022/08/26 04:20:12;;;;;;;15.37;10.00;;;;;;;18.10;100.00;100629.25;5010937;28;20196;-70
2022/08/26 04:22:39;;;;;;;12.07;10.50;;;;;;;18.13;100.00;100620.31;5031009;28;20188;-72
2022/08/26 04:25:06;;;;;;;18.13;11.03;;;;;;;18.15;100.00;100624.56;5024833;28;20196;-71
2022/08/26 04:27:33;;;;;;;15.53;11.33;;;;;;;18.17;100.00;100627.13;5023560;28;20235;-70
2022/08/26 04:29:59;;;;;;;18.97;11.33;;;;;;;18.19;100.00;100625.25;5026658;28;20262;-70
2022/08/26 04:32:26;;;;;;;16.03;10.73;;;;;;;18.22;100.00;100622.41;5021354;28;20746;-71
2022/08/26 04:34:53;;;;;;;16.13;10.23;;;;;;;18.26;100.00;100626.59;5027172;28;20200;-71
2022/08/26 04:37:20;;;;;;;15.97;11.80;;;;;;;18.30;100.00;100622.81;5010941;28;20242;-70
2022/08/26 04:39:51;;;;;;;16.53;10.87;;;;;;;18.32;100.00;100628.84;5029188;28;20200;-71
2022/08/26 04:42:17;;;;;;;15.23;11.50;;;;;;;18.35;100.00;100625.19;5033649;28;20207;-71
2022/08/26 04:44:45;;;;;;;15.23;11.07;;;;;;;18.38;100.00;100627.66;5027333;28;20206;-71
2022/08/26 04:47:12;;;;;;;13.67;11.23;;;;;;;18.40;100.00;100628.44;5033473;28;20216;-71
2022/08/26 04:49:38;;;;;;;16.20;11.77;;;;;;;18.42;100.00;100620.41;5029805;28;20250;-71
2022/08/26 04:52:06;;;;;;;16.90;12.20;;;;;;;18.44;100.00;100623.81;5025635;28;20228;-72
2022/08/26 04:54:32;;;;;;;20.27;12.10;;;;;;;18.48;100.00;100617.41;5028484;28;20208;-71
2022/08/26 04:56:59;;;;;;;18.83;13.10;;;;;;;18.54;100.00;100622.34;5029796;28;20258;-71
2022/08/26 04:59:25;;;;;;;19.30;13.03;;;;;;;18.57;100.00;100622.13;5025316;28;20208;-71
2022/08/26 05:01:55;;;;;;;17.80;12.53;;;;;;;18.61;100.00;100623.66;5010888;28;20207;-71
2022/08/26 05:04:21;;;;;;;14.27;11.23;;;;;;;18.69;100.00;100631.13;5028218;28;20204;-71
2022/08/26 05:06:48;;;;;;;16.77;12.10;;;;;;;18.75;100.00;100628.13;5026538;28;20298;-71
2022/08/26 05:09:18;;;;;;;18.47;12.30;;;;;;;18.84;100.00;100624.09;5019273;28;20208;-70
2022/08/26 05:11:45;;;;;;;24.10;13.37;;;;;;;18.91;100.00;100620.16;5019153;28;20195;-71
2022/08/26 05:14:11;;;;;;;18.27;13.00;;;;;;;18.99;100.00;100617.03;5028607;28;20195;-71
2022/08/26 05:16:38;;;;;;;21.17;12.80;;;;;;;19.05;100.00;100619.28;5023868;28;20215;-71
2022/08/26 05:19:05;;;;;;;16.00;12.40;;;;;;;19.12;100.00;100623.25;5025921;28;20254;-71
2022/08/26 05:21:32;;;;;;;23.43;13.83;;;;;;;19.19;100.00;100623.69;5026986;28;20223;-71
2022/08/26 05:24:00;;;;;;;20.87;13.47;;;;;;;19.26;100.00;100617.97;5023586;28;20657;-71
2022/08/26 05:26:30;;;;;;;18.20;13.23;;;;;;;19.32;100.00;100621.16;5031014;28;20243;-70
2022/08/26 05:28:57;;;;;;;18.90;13.63;;;;;;;19.35;100.00;100618.31;5030111;28;20554;-71
2022/08/26 05:31:26;;;;;;;18.70;13.30;;;;;;;19.38;100.00;100616.31;5003641;28;20252;-71
2022/08/26 05:33:53;;;;;;;18.10;12.80;;;;;;;19.42;100.00;100617.84;5026099;28;20195;-70
2022/08/26 05:36:21;;;;;;;24.00;13.00;;;;;;;19.49;100.00;100607.72;5034352;28;20219;-70
2022/08/26 05:38:48;;;;;;;18.47;12.93;;;;;;;19.60;100.00;100617.63;5009581;28;20219;-71
2022/08/26 05:41:16;;;;;;;22.70;14.03;;;;;;;19.60;100.00;100613.16;5028445;28;20727;-71
2022/08/26 05:43:45;;;;;;;17.77;13.70;;;;;;;19.68;100.00;100616.19;5029185;28;20200;-70
2022/08/26 05:46:12;;;;;;;19.53;13.90;;;;;;;19.74;100.00;100619.41;5021835;28;20195;-70
2022/08/26 05:48:38;;;;;;;21.23;12.70;;;;;;;19.78;100.00;100615.59;5027036;28;20191;-70
2022/08/26 05:51:08;;;;;;;20.77;13.43;;;;;;;19.81;100.00;100608.31;5028422;28;20200;-71
2022/08/26 05:53:36;;;;;;;16.97;12.67;;;;;;;19.86;100.00;100611.50;5021387;28;20250;-71
2022/08/26 05:56:04;;;;;;;21.73;13.50;;;;;;;19.95;100.00;100614.53;5021487;28;20635;-70
2022/08/26 05:58:34;;;;;;;18.53;12.57;;;;;;;20.04;100.00;100620.03;5024890;28;20219;-71
2022/08/26 06:01:04;;;;;;;18.67;13.23;;;;;;;20.17;100.00;100616.56;5023594;28;20195;-70
2022/08/26 06:03:33;;;;;;;18.67;13.30;;;;;;;20.28;100.00;100615.84;5024490;28;20210;-71
2022/08/26 06:06:02;;;;;;;19.03;13.07;;;;;;;20.39;100.00;100608.06;5029868;28;20680;-71
2022/08/26 06:08:28;;;;;;;21.70;13.27;;;;;;;20.55;100.00;100615.81;5023859;28;20189;-71
2022/08/26 06:10:59;;;;;;;21.13;12.87;;;;;;;20.69;100.00;100614.91;5032908;28;20679;-71
2022/08/26 06:13:28;;;;;;;27.67;13.33;;;;;;;20.80;100.00;100612.34;5022969;28;20294;-71
2022/08/26 06:15:55;;;;;;;16.43;12.43;;;;;;;20.94;100.00;100617.53;5023847;28;20283;-71
2022/08/26 06:18:29;;;;;;;16.67;12.20;;;;;;;21.07;100.00;100616.66;5021145;28;20576;-70
2022/08/26 06:20:56;;;;;;;16.17;11.65;;;;;;;21.17;100.00;100620.38;5030315;28;20226;-71
2022/08/26 06:26:07;;;;;;;16.30;11.32;;;;;;;21.52;100.00;100611.72;5020005;28;20196;-70
2022/08/26 06:28:33;;;;;;;16.10;11.13;;;;;;;21.64;100.00;100615.31;5027935;28;20199;-71
2022/08/26 06:31:02;;;;;;;18.05;11.57;;;;;;;21.75;100.00;100616.19;5014950;28;20195;-71
2022/08/26 06:33:31;;;;;;;15.13;11.10;;;;;;;21.87;100.00;100621.56;5035413;28;20202;-71
2022/08/26 06:35:59;;;;;;;18.13;10.35;;;;;;;22.03;100.00;100621.28;5029844;28;20204;-71
2022/08/26 06:38:26;;;;;;;14.57;10.88;;;;;;;22.11;100.00;100617.09;5019699;28;20225;-71
2022/08/26 06:40:54;;;;;;;16.42;10.30;;;;;;;22.14;100.00;100613.34;5020461;28;20555;-71
2022/08/26 06:43:23;;;;;;;15.50;10.85;;;;;;;22.23;100.00;100609.16;5020140;28;20205;-71
2022/08/26 06:45:50;;;;;;;14.85;9.80;;;;;;;22.28;100.00;100610.53;4999362;28;20196;-72
2022/08/26 06:48:18;;;;;;;14.50;10.30;;;;;;;22.43;100.00;100599.72;5019898;28;20277;-71
2022/08/26 06:50:47;;;;;;;14.35;10.30;;;;;;;22.52;100.00;100604.34;5029866;28;20227;-71
2022/08/26 06:53:14;;;;;;;15.18;11.05;;;;;;;22.66;100.00;100606.75;5009987;28;20199;-71
2022/08/26 06:55:41;;;;;;;17.15;10.57;;;;;;;22.81;100.00;100603.88;5024991;28;20621;-71
2022/08/26 06:58:08;;;;;;;17.10;10.50;;;;;;;22.88;100.00;100603.31;5026656;28;20215;-71
2022/08/26 07:00:35;;;;;;;15.38;10.02;;;;;;;23.01;100.00;100613.81;5025190;28;20258;-71
2022/08/26 07:03:01;;;;;;;15.13;10.25;;;;;;;23.09;100.00;100612.38;5021604;28;20553;-71
2022/08/26 07:05:28;;;;;;;14.07;10.02;;;;;;;23.16;100.00;100614.41;5026842;28;20196;-71
2022/08/26 07:07:56;;;;;;;16.20;10.35;;;;;;;23.22;100.00;100619.28;5028132;28;20220;-71
2022/08/26 07:10:23;;;;;;;16.98;10.32;;;;;;;23.30;100.00;100620.47;5019751;28;20203;-71
2022/08/26 07:12:50;;;;;;;15.40;10.27;;;;;;;23.46;100.00;100612.09;5026236;28;20204;-71
2022/08/26 07:15:17;;;;;;;13.63;10.23;;;;;;;23.56;100.00;100613.88;5025775;28;20223;-71
2022/08/26 07:17:43;;;;;;;13.88;10.43;;;;;;;23.63;100.00;100617.75;5002698;28;20673;-71
2022/08/26 07:20:10;;;;;;;22.90;10.27;;;;;;;23.79;100.00;100611.16;5028294;28;20263;-71
2022/08/26 07:22:37;;;;;;;18.23;10.38;;;;;;;23.87;100.00;100611.44;5013261;28;20652;-72
2022/08/26 07:25:07;;;;;;;16.05;10.45;;;;;;;23.91;100.00;100612.84;5028203;28;20258;-71
2022/08/26 07:27:34;;;;;;;14.70;9.93;;;;;;;24.04;100.00;100612.69;5022610;28;20258;-71
2022/08/26 07:30:01;;;;;;;16.35;10.02;;;;;;;24.11;100.00;100611.19;5026749;28;20672;-72
2022/08/26 07:32:27;;;;;;;16.95;9.65;;;;;;;24.10;100.00;100616.66;5022032;28;20192;-71
2022/08/26 07:34:54;;;;;;;12.05;9.18;;;;;;;24.08;100.00;100605.28;5028065;28;20541;-71
2022/08/26 07:37:21;;;;;;;17.15;8.70;;;;;;;24.19;100.00;100610.56;5030982;28;20583;-71
2022/08/26 07:39:47;;;;;;;15.05;9.68;;;;;;;24.18;100.00;100611.53;5039059;28;20250;-71
2022/08/26 07:42:18;;;;;;;15.38;9.00;;;;;;;24.31;100.00;100612.19;5017223;28;20200;-71
2022/08/26 07:44:45;;;;;;;12.25;8.43;;;;;;;24.41;100.00;100608.75;5017851;28;20562;-71
2022/08/26 07:47:12;;;;;;;14.55;9.07;;;;;;;24.45;100.00;100611.03;5023332;28;20247;-71
2022/08/26 07:49:38;;;;;;;11.88;8.48;;;;;;;24.47;100.00;100611.75;5019998;28;20633;-71
2022/08/26 07:52:05;;;;;;;13.20;9.57;;;;;;;24.34;100.00;100609.28;5022638;28;20302;-71
2022/08/26 07:54:32;;;;;;;11.18;8.15;;;;;;;24.37;100.00;100609.00;5024063;28;20235;-70
2022/08/26 07:56:58;;;;;;;16.30;9.18;;;;;;;24.44;100.00;100603.16;5025099;28;20302;-71
2022/08/26 07:59:26;;;;;;;14.10;9.27;;;;;;;24.49;100.00;100607.13;5024751;28;20239;-70
2022/08/26 08:01:52;;;;;;;16.05;9.13;;;;;;;24.54;100.00;100601.44;5014028;28;20210;-71
2022/08/26 08:04:19;;;;;;;14.95;9.65;;;;;;;24.65;100.00;100600.53;5025693;28;20200;-71
2022/08/26 08:06:46;;;;;;;12.27;8.98;;;;;;;24.79;100.00;100607.34;5028005;28;20215;-71
2022/08/26 08:09:14;;;;;;;14.07;9.18;;;;;;;24.81;100.00;100605.38;5031739;28;20197;-71
2022/08/26 08:11:40;;;;;;;12.10;8.80;;;;;;;24.92;100.00;100599.94;5020915;28;20217;-72
2022/08/26 08:14:08;;;;;;;16.02;9.43;;;;;;;25.03;100.00;100599.00;5029612;28;20824;-71
2022/08/26 08:16:36;;;;;;;18.45;9.57;;;;;;;25.02;100.00;100600.81;5009452;28;20226;-71
2022/08/26 08:19:02;;;;;;;12.45;8.80;;;;;;;24.97;100.00;100595.03;5010548;28;20212;-71
2022/08/26 08:21:29;;;;;;;13.00;8.07;;;;;;;25.05;100.00;100589.91;5032143;28;20581;-71
2022/08/26 08:23:57;;;;;;;11.23;9.13;;;;;;;25.06;100.00;100594.22;5013163;28;20564;-71
2022/08/26 08:26:25;;;;;;;12.27;8.57;;;;;;;25.21;100.00;100592.06;5020119;28;20224;-71
2022/08/26 08:28:55;;;;;;;13.15;9.25;;;;;;;25.33;100.00;100590.16;5021143;28;20196;-71
2022/08/26 08:31:23;;;;;;;13.20;8.95;;;;;;;25.46;100.00;100589.91;5028673;28;20667;-71
2022/08/26 08:33:51;;;;;;;12.95;8.25;;;;;;;25.46;100.00;100584.56;5029850;28;20270;-71
2022/08/26 08:36:17;;;;;;;13.90;8.00;;;;;;;25.56;100.00;100593.44;5037341;28;20224;-71
2022/08/26 08:38:44;;;;;;;13.57;9.13;;;;;;;25.58;100.00;100585.28;5028922;28;20306;-71
2022/08/26 08:41:26;;;;;;;16.67;8.95;;;;;;;25.65;100.00;100576.56;5020671;28;20200;-71
2022/08/26 08:43:54;;;;;;;11.18;8.02;;;;;;;25.73;100.00;100578.53;5022850;28;20191;-71
2022/08/26 08:46:21;;;;;;;14.27;8.32;;;;;;;25.87;100.00;100575.47;5021749;28;20303;-71
2022/08/26 08:48:55;;;;;;;12.88;9.00;;;;;;;25.93;100.00;100565.19;5023902;28;20196;-70
2022/08/26 08:51:31;;;;;;;10.95;8.52;;;;;;;25.97;100.00;100578.16;5026238;28;20201;-71
2022/08/26 08:53:59;;;;;;;14.18;7.95;;;;;;;26.10;100.00;100571.69;5022360;28;20207;-70
2022/08/26 08:56:30;;;;;;;13.10;7.68;;;;;;;26.21;100.00;100572.38;5028583;28;20612;-72
2022/08/26 08:59:05;;;;;;;11.00;7.90;;;;;;;26.25;100.00;100571.09;5028008;28;20740;-72
2022/08/26 09:01:40;;;;;;;9.80;7.80;;;;;;;26.19;100.00;100568.16;5019434;28;20204;-69
2022/08/26 09:04:19;;;;;;;11.85;7.97;;;;;;;26.09;100.00;100572.69;5028332;28;20694;-72
2022/08/26 09:06:47;;;;;;;15.60;7.90;;;;;;;26.12;100.00;100559.03;5026501;28;20216;-69
2022/08/26 09:09:21;;;;;;;15.80;7.65;;;;;;;26.39;100.00;100563.63;5022476;28;20196;-69
2022/08/26 09:11:48;;;;;;;13.80;7.72;;;;;;;26.48;100.00;100568.09;5021557;28;20204;-69
2022/08/26 09:14:14;;;;;;;11.57;7.65;;;;;;;26.50;100.00;100576.81;5023287;28;20695;-72
2022/08/26 09:16:50;;;;;;;14.15;7.10;;;;;;;26.58;100.00;100568.91;5030753;28;20216;-73
2022/08/26 09:19:28;;;;;;;10.38;7.28;;;;;;;26.68;100.00;100568.06;5032118;28;20222;-69
2022/08/26 09:21:56;;;;;;;12.18;7.40;;;;;;;26.71;100.00;100563.28;5022942;28;20242;-70
2022/08/26 09:24:22;;;;;;;12.13;7.40;;;;;;;26.85;100.00;100558.44;5026225;28;20192;-69
2022/08/26 09:26:51;;;;;;;13.35;7.35;;;;;;;26.90;100.00;100562.34;5025148;28;20219;-69
2022/08/26 09:29:24;;;;;;;13.27;8.00;;;;;;;26.85;100.00;100553.94;5027330;28;20192;-69
2022/08/26 09:31:51;;;;;;;11.30;7.60;;;;;;;26.82;100.00;100555.06;5027658;28;20227;-69
2022/08/26 09:34:23;;;;;;;8.52;6.97;;;;;;;26.93;100.00;100546.00;5020647;28;20201;-69
2022/08/26 09:36:52;;;;;;;10.32;7.57;;;;;;;27.02;100.00;100546.97;5020265;28;20230;-71
2022/08/26 09:39:29;;;;;;;12.82;7.30;;;;;;;27.18;100.00;100551.66;5022506;28;20207;-71
2022/08/26 09:42:08;;;;;;;10.32;6.78;;;;;;;27.24;94.69;100552.88;5019182;28;20600;-71
2022/08/26 09:44:35;;;;;;;7.90;6.30;;;;;;;27.40;96.32;100545.03;5020047;28;20192;-72
2022/08/26 09:47:04;;;;;;;7.03;5.95;;;;;;;27.48;91.15;100552.34;5022768;28;20224;-72
2022/08/26 09:49:35;;;;;;;11.27;6.75;;;;;;;27.46;90.52;100541.78;5029039;28;20665;-71
2022/08/26 09:52:20;;;;;;;10.40;6.45;;;;;;;27.54;90.62;100544.50;5024240;28;20596;-69
2022/08/26 09:55:03;;;;;;;12.13;6.63;;;;;;;27.70;93.92;100538.50;5031459;28;20196;-70
2022/08/26 09:57:33;;;;;;;10.52;5.85;;;;;;;27.77;84.81;100541.38;5029208;28;20226;-69
2022/08/26 10:00:00;;;;;;;9.45;5.93;;;;;;;27.71;84.38;100532.13;5028728;28;20240;-69
2022/08/26 10:02:42;;;;;;;10.68;6.88;;;;;;;27.82;84.91;100535.56;5023516;28;20564;-69
2022/08/26 10:05:17;;;;;;;10.60;6.65;;;;;;;27.86;84.86;100521.72;5025673;28;20230;-70
2022/08/26 10:07:47;;;;;;;10.85;6.68;;;;;;;27.95;86.08;100525.34;5025510;28;20299;-69
2022/08/26 10:10:20;;;;;;;9.88;5.93;;;;;;;28.11;80.71;100529.97;5022450;28;20282;-72
2022/08/26 10:12:55;;;;;;;6.63;5.47;;;;;;;28.07;77.46;100526.78;5028095;28;20257;-72
2022/08/26 10:15:23;;;;;;;8.43;6.45;;;;;;;28.11;79.26;100528.13;5023696;28;20206;-69
2022/08/26 10:21:43;;;;;;;13.18;5.10;;;;;;;28.39;72.87;100530.66;5019010;28;20191;-72
2022/08/26 10:24:12;;;;;;;10.43;5.13;;;;;;;28.48;73.68;100515.47;5024164;28;20204;-69
2022/08/26 10:26:46;;;;;;;9.15;5.93;;;;;;;28.61;71.89;100515.06;5020112;28;20219;-70
2022/08/26 10:29:18;;;;;;;8.88;5.80;;;;;;;28.67;69.69;100526.00;5023551;28;20199;-70
2022/08/26 10:31:51;;;;;;;7.68;5.70;;;;;;;28.71;70.62;100510.41;5029244;28;20203;-71
2022/08/26 10:34:18;;;;;;;9.88;5.10;;;;;;;28.91;71.23;100516.34;5030951;28;20204;-71
2022/08/26 10:36:56;;;;;;;12.93;5.65;;;;;;;28.89;68.21;100504.94;5030878;28;20269;-69
2022/08/26 10:39:28;;;;;;;9.05;4.78;;;;;;;28.95;68.16;100495.38;5020234;28;20212;-71
2022/08/26 10:42:00;;;;;;;6.53;5.15;;;;;;;29.13;67.55;100503.31;5024033;28;20199;-70
2022/08/26 10:44:30;;;;;;;9.27;4.95;;;;;;;29.16;66.44;100500.34;5014952;28;20283;-71
2022/08/26 10:47:01;;;;;;;9.38;5.30;;;;;;;29.10;66.16;100491.09;5024121;28;20212;-71
2022/08/26 10:49:28;;;;;;;7.45;5.15;;;;;;;29.07;66.22;100486.88;5038072;28;20618;-69
2022/08/26 10:52:04;;;;;;;6.22;4.75;;;;;;;29.21;67.76;100480.06;5022297;28;20541;-71
2022/08/26 10:54:43;;;;;;;9.05;4.35;;;;;;;29.38;63.99;100478.25;5020344;28;20544;-73
2022/08/26 10:57:16;;;;;;;7.00;5.43;;;;;;;29.29;63.35;100471.19;5023846;28;20243;-71
2022/08/26 10:59:56;;;;;;;10.23;4.70;;;;;;;29.49;62.80;100466.31;5024937;28;20215;-71
2022/08/26 11:02:31;;;;;;;8.18;5.03;;;;;;;29.46;61.79;100466.66;5025673;28;20282;-69
2022/08/26 11:05:00;;;;;;;6.63;4.72;;;;;;;29.45;61.43;100449.72;5023866;28;20198;-71
2022/08/26 11:07:38;;;;;;;9.13;4.32;;;;;;;29.61;62.61;100456.94;5016910;28;20275;-71
2022/08/26 11:10:08;;;;;;;6.13;4.00;;;;;;;29.66;59.88;100445.69;5020933;28;20207;-69
2022/08/26 11:13:02;;;;;;;7.45;4.57;;;;;;;29.76;56.96;100432.09;5029274;28;20207;-70
2022/08/26 11:16:07;;;;;;;6.90;4.55;;;;;;;29.93;58.32;100427.53;4967872;28;20205;-73
2022/08/26 11:18:43;;;;;;;5.10;4.32;;;;;;;29.95;56.75;100430.88;5021454;28;20202;-70
2022/08/26 11:21:45;;;;;;;5.88;4.35;;;;;;;29.83;56.36;100419.66;5023073;28;20729;-70